Harpers Ferry, West Virginia
Current Conditions -  °F | °C
As of 9:53 PM on Friday 19 Dec 2014 (Local Time) from KMRB Reporting Station
Clear Clear  
Wind Chill: 24°   Ceiling: Unl
Heat Index: 32°   Visibility: 10mi
Dew Point: 19°   Wind: 9mph
Humidity: 59%   Direction: 300°WNW
Pressure: 30.25"   Gusts: NA
Location:  39.33°N, 77.74°W
Report Text: KMRB 200253Z 30008KT 10SM CLR 00/M07 A3025 RMK AO2 SLP250 T00001072 51013
Loading
Personal Weather Stations






























Interactive Weather Map New forecast layout! Learn more

10-Day Weather Forecast

Advertisements
Track Severe Weather on mobile